Time;durP1;ratioP1;P1;durP2;ratioP2;P2;SDS_P1;SDS_P2;PMS_P1;PMS_P2;Temp;Humidity;BMP_temperature;BMP_pressure;BME280_temperature;BME280_humidity;BME280_pressure;Samples;Min_cycle;Max_cycle;Signal;HPM_P1;HPM_P2
2022/05/04 00:01:12;;;;;;;15.43;4.85;;;;;;;12.34;61.64;101365.28;5109729;27;20101;-71
2022/05/04 00:03:39;;;;;;;9.27;4.40;;;;;;;12.19;62.08;101372.97;5110067;27;20043;-71
2022/05/04 00:06:05;;;;;;;8.85;4.68;;;;;;;12.14;62.27;101371.50;5102759;27;20085;-71
2022/05/04 00:08:32;;;;;;;8.65;4.90;;;;;;;12.08;63.15;101379.69;5109673;27;20048;-71
2022/05/04 00:10:58;;;;;;;9.07;4.60;;;;;;;12.28;62.28;101376.06;5109135;27;20065;-71
2022/05/04 00:13:26;;;;;;;11.02;4.63;;;;;;;11.92;63.36;101378.69;5106971;27;20039;-71
2022/05/04 00:15:52;;;;;;;9.63;4.05;;;;;;;12.19;62.42;101375.59;5109100;27;20065;-71
2022/05/04 00:18:19;;;;;;;16.10;4.90;;;;;;;11.67;64.72;101374.56;5109015;27;20048;-70
2022/05/04 00:20:45;;;;;;;10.50;4.72;;;;;;;11.57;64.49;101381.13;5108450;27;20097;-70
2022/05/04 00:23:11;;;;;;;13.40;5.05;;;;;;;11.81;64.20;101373.94;5108974;27;20044;-70
2022/05/04 00:25:38;;;;;;;7.97;4.03;;;;;;;11.97;63.51;101374.09;5109702;27;20105;-70
2022/05/04 00:28:04;;;;;;;8.75;3.70;;;;;;;12.11;62.38;101376.91;5109278;27;20096;-70
2022/05/04 00:30:32;;;;;;;8.98;3.80;;;;;;;12.06;61.74;101376.25;5108398;27;20051;-71
2022/05/04 00:33:00;;;;;;;9.02;4.22;;;;;;;12.19;61.97;101369.50;5108918;27;20416;-71
2022/05/04 00:35:27;;;;;;;14.35;4.15;;;;;;;12.39;60.93;101368.50;5109034;28;20044;-71
2022/05/04 00:37:53;;;;;;;9.23;3.97;;;;;;;12.29;61.38;101364.63;5108459;27;20088;-71
2022/05/04 00:40:20;;;;;;;9.98;4.45;;;;;;;12.30;61.46;101367.22;5104832;27;20456;-71
2022/05/04 00:42:46;;;;;;;13.00;5.40;;;;;;;12.03;62.69;101363.28;5109121;27;20043;-71
2022/05/04 00:45:12;;;;;;;10.10;4.50;;;;;;;12.00;62.41;101364.28;5108278;27;20064;-71
2022/05/04 00:47:40;;;;;;;11.65;4.70;;;;;;;11.86;63.02;101356.16;5109411;28;20097;-71
2022/05/04 00:50:08;;;;;;;11.75;5.03;;;;;;;12.03;62.20;101355.38;5108396;28;20092;-71
2022/05/04 00:52:36;;;;;;;9.77;4.40;;;;;;;11.71;63.19;101352.47;5108924;27;20092;-71
2022/05/04 00:55:03;;;;;;;8.52;4.93;;;;;;;11.79;62.73;101356.56;5107028;27;20048;-70
2022/05/04 01:00:15;;;;;;;9.20;4.82;;;;;;;11.73;62.79;101356.81;5102369;27;20046;-70
2022/05/04 01:02:43;;;;;;;6.30;4.63;;;;;;;11.88;62.43;101353.47;5105853;27;20507;-70
2022/05/04 01:05:11;;;;;;;9.30;4.43;;;;;;;12.04;61.65;101351.84;5106456;27;20507;-71
2022/05/04 01:07:38;;;;;;;12.57;4.50;;;;;;;12.25;60.49;101347.31;5108716;27;20047;-70
2022/05/04 01:10:05;;;;;;;12.65;5.80;;;;;;;12.33;60.35;101353.91;5107494;27;20141;-70
2022/05/04 01:12:32;;;;;;;11.05;4.88;;;;;;;12.32;59.94;101360.09;5104817;27;20142;-70
2022/05/04 01:15:00;;;;;;;11.52;4.78;;;;;;;12.29;60.20;101354.13;5108521;27;20040;-70
2022/05/04 01:17:28;;;;;;;7.65;4.85;;;;;;;12.14;60.84;101360.97;5108650;27;20040;-70
2022/05/04 01:19:56;;;;;;;9.30;4.80;;;;;;;12.02;60.78;101359.78;5107700;27;20039;-70
2022/05/04 01:22:24;;;;;;;11.43;4.80;;;;;;;12.25;59.82;101360.47;5108434;28;20050;-70
2022/05/04 01:24:50;;;;;;;11.13;4.90;;;;;;;12.27;59.49;101350.72;5107513;28;20428;-71
2022/05/04 01:27:16;;;;;;;9.52;4.82;;;;;;;12.11;59.93;101355.88;5108405;27;20047;-71
2022/05/04 01:29:43;;;;;;;10.50;5.30;;;;;;;12.02;60.18;101356.31;5107844;27;20096;-70
2022/05/04 01:32:10;;;;;;;11.55;4.95;;;;;;;12.04;60.13;101363.22;5108837;27;20052;-70
2022/05/04 01:34:36;;;;;;;10.27;4.50;;;;;;;12.19;59.86;101361.63;5110495;28;20067;-70
2022/05/04 01:37:03;;;;;;;11.00;5.15;;;;;;;12.20;59.41;101361.53;5107977;27;20073;-71
2022/05/04 01:39:30;;;;;;;14.02;5.35;;;;;;;11.87;60.87;101357.88;5113906;27;20062;-70
2022/05/04 01:42:09;;;;;;;14.23;5.32;;;;;;;11.99;60.56;101361.72;5108529;27;20040;-70
2022/05/04 01:44:36;;;;;;;11.23;5.20;;;;;;;11.75;61.08;101370.75;5115329;27;20092;-70
2022/05/04 01:47:02;;;;;;;11.35;4.72;;;;;;;11.86;60.74;101369.31;5114558;27;20071;-72
2022/05/04 01:49:29;;;;;;;9.77;5.07;;;;;;;12.09;59.70;101368.22;5113670;27;20071;-70
2022/05/04 01:51:55;;;;;;;12.60;5.03;;;;;;;11.82;60.92;101364.28;5107774;28;20043;-70
2022/05/04 01:54:22;;;;;;;18.38;5.53;;;;;;;11.62;62.17;101363.41;5108284;27;20124;-70
2022/05/04 01:56:49;;;;;;;10.10;5.55;;;;;;;11.73;61.73;101356.81;5108170;27;20086;-70
2022/05/04 01:59:16;;;;;;;13.65;4.72;;;;;;;11.26;62.87;101359.81;5107474;28;20075;-70
2022/05/04 02:01:43;;;;;;;13.63;4.82;;;;;;;11.36;62.25;101363.72;5108274;28;20453;-70
2022/05/04 02:04:09;;;;;;;10.10;4.95;;;;;;;11.33;62.05;101368.28;5094708;27;20530;-70
2022/05/04 02:06:37;;;;;;;10.15;5.15;;;;;;;11.21;62.28;101381.03;5131427;27;20044;-70
2022/05/04 02:09:04;;;;;;;12.75;5.13;;;;;;;11.15;62.62;101367.31;5111044;27;20131;-70
2022/05/04 02:11:32;;;;;;;12.02;4.80;;;;;;;10.97;63.09;101368.97;5112416;27;20047;-70
2022/05/04 02:14:00;;;;;;;13.18;5.20;;;;;;;10.75;63.44;101362.94;5115169;27;20043;-70
2022/05/04 02:16:26;;;;;;;12.85;4.97;;;;;;;10.84;63.27;101364.31;5116024;27;20039;-70
2022/05/04 02:18:53;;;;;;;8.75;4.35;;;;;;;10.64;63.86;101355.50;5110785;27;20073;-70
2022/05/04 02:21:19;;;;;;;12.23;4.75;;;;;;;10.55;63.82;101366.41;5099425;27;20482;-70
2022/05/04 02:23:46;;;;;;;10.15;4.13;;;;;;;10.34;64.59;101356.81;5106368;27;20483;-70
2022/05/04 02:26:12;;;;;;;9.70;4.65;;;;;;;10.36;64.33;101359.34;5111811;27;20097;-70
2022/05/04 02:28:38;;;;;;;12.30;4.60;;;;;;;10.68;63.06;101364.09;5111505;27;20113;-70
2022/05/04 02:31:06;;;;;;;11.70;4.70;;;;;;;10.48;63.90;101369.34;5111544;27;20063;-70
2022/05/04 02:33:32;;;;;;;7.75;4.10;;;;;;;10.80;62.74;101362.72;5111072;27;20467;-70
2022/05/04 02:38:43;;;;;;;14.93;4.68;;;;;;;10.22;64.80;101365.16;5105848;27;20058;-70
2022/05/04 02:41:09;;;;;;;17.75;4.72;;;;;;;10.02;65.53;101368.53;5111826;27;20656;-70
2022/05/04 02:43:35;;;;;;;11.40;4.32;;;;;;;10.12;64.98;101374.28;5111398;27;20548;-70
2022/05/04 02:46:14;;;;;;;14.35;4.07;;;;;;;10.13;64.41;101368.09;5111142;27;20092;-70
2022/05/04 02:48:41;;;;;;;11.52;4.32;;;;;;;10.17;64.25;101374.97;5110806;27;20418;-70
2022/05/04 02:51:07;;;;;;;10.40;4.25;;;;;;;10.08;64.22;101383.16;5111058;27;20043;-70
2022/05/04 02:53:33;;;;;;;13.38;4.43;;;;;;;10.14;64.18;101373.31;5110454;27;20093;-70
2022/05/04 02:56:00;;;;;;;10.88;4.63;;;;;;;10.04;64.59;101385.06;5106907;27;20100;-70
2022/05/04 02:58:26;;;;;;;13.40;4.88;;;;;;;9.93;64.80;101379.38;5110636;27;20503;-70
2022/05/04 03:00:52;;;;;;;10.65;3.83;;;;;;;9.79;64.96;101377.28;5108837;27;20071;-71
2022/05/04 03:03:19;;;;;;;10.15;4.38;;;;;;;9.78;65.06;101370.34;5106093;28;20121;-71
2022/05/04 03:05:45;;;;;;;12.35;4.47;;;;;;;9.59;65.29;101374.56;5098703;27;20504;-71
2022/05/04 03:08:12;;;;;;;11.23;4.40;;;;;;;9.60;65.50;101378.91;5110205;27;20048;-71
2022/05/04 03:13:18;;;;;;;8.60;3.88;;;;;;;9.32;66.07;101370.34;5108284;27;20032;-71
2022/05/04 03:15:45;;;;;;;10.75;3.63;;;;;;;9.56;65.01;101372.06;5099111;28;20187;-71
2022/05/04 03:18:11;;;;;;;16.98;4.72;;;;;;;9.39;65.31;101374.44;5089850;28;20044;-71
2022/05/04 03:20:39;;;;;;;12.85;4.18;;;;;;;9.54;65.17;101373.88;5091115;27;20068;-71
2022/05/04 03:23:05;;;;;;;9.43;3.85;;;;;;;9.36;65.38;101378.94;5110540;28;20112;-71
2022/05/04 03:25:32;;;;;;;11.05;4.47;;;;;;;9.01;67.03;101372.38;5106932;27;20048;-71
2022/05/04 03:27:58;;;;;;;8.93;4.28;;;;;;;9.47;65.70;101376.78;5110365;27;20044;-70
2022/05/04 03:30:24;;;;;;;10.35;4.03;;;;;;;9.10;66.51;101377.25;5107462;27;20043;-70
2022/05/04 03:32:50;;;;;;;16.13;4.68;;;;;;;9.39;65.81;101384.91;5090242;27;20561;-70
2022/05/04 03:35:17;;;;;;;15.18;4.35;;;;;;;9.44;65.97;101379.50;5091826;27;20036;-70
2022/05/04 03:37:44;;;;;;;13.07;3.95;;;;;;;9.56;65.33;101386.91;5111247;27;20047;-70
2022/05/04 03:40:13;;;;;;;11.35;4.38;;;;;;;9.51;64.93;101387.09;5109675;27;20136;-70
2022/05/04 03:42:39;;;;;;;14.32;4.40;;;;;;;9.52;65.33;101391.41;5110471;28;20476;-71
2022/05/04 03:45:06;;;;;;;12.77;4.30;;;;;;;9.66;64.49;101393.50;5116973;27;20047;-71
2022/05/04 03:47:33;;;;;;;13.40;4.95;;;;;;;9.43;64.93;101389.13;5104783;27;22809;-71
2022/05/04 03:49:59;;;;;;;9.93;3.70;;;;;;;9.33;65.62;101382.53;5101444;28;20120;-71
2022/05/04 03:52:25;;;;;;;9.82;4.28;;;;;;;9.19;65.91;101384.78;5109499;27;20047;-71
2022/05/04 03:54:53;;;;;;;13.02;4.30;;;;;;;9.27;65.31;101391.44;5104734;27;20093;-71
2022/05/04 03:57:19;;;;;;;16.73;4.78;;;;;;;9.19;66.08;101397.88;5108833;27;20039;-71
2022/05/04 03:59:46;;;;;;;15.75;4.40;;;;;;;9.31;66.06;101391.34;5108400;27;20047;-71
2022/05/04 04:02:12;;;;;;;15.98;4.72;;;;;;;9.41;66.13;101392.72;5109541;28;20035;-71
2022/05/04 04:04:38;;;;;;;13.50;5.57;;;;;;;9.14;67.46;101394.56;5109289;28;20104;-71
2022/05/04 04:07:05;;;;;;;14.90;4.20;;;;;;;9.48;66.46;101395.06;5108690;27;20476;-70
2022/05/04 04:09:31;;;;;;;15.75;4.68;;;;;;;9.51;65.90;101396.69;5108250;27;20439;-70
2022/05/04 04:12:00;;;;;;;10.93;3.95;;;;;;;9.45;66.06;101392.56;5108923;28;20063;-71
2022/05/04 04:14:26;;;;;;;10.35;3.97;;;;;;;9.57;65.44;101393.88;5102450;27;20500;-71
2022/05/04 04:16:53;;;;;;;12.60;4.57;;;;;;;9.56;65.15;101387.78;5108625;28;20039;-71
2022/05/04 04:19:19;;;;;;;11.98;4.32;;;;;;;9.62;64.87;101390.16;5091273;27;20059;-71
2022/05/04 04:21:50;;;;;;;18.17;4.70;;;;;;;9.48;65.43;101394.19;5100184;27;20557;-71
2022/05/04 04:24:17;;;;;;;8.25;3.88;;;;;;;9.41;65.84;101403.19;5109267;27;20089;-71
2022/05/04 04:26:43;;;;;;;12.23;4.18;;;;;;;9.41;66.15;101398.81;5091289;28;20048;-71
2022/05/04 04:29:11;;;;;;;14.80;4.35;;;;;;;9.31;66.35;101405.28;5104627;27;20103;-71
2022/05/04 04:31:37;;;;;;;15.05;4.80;;;;;;;9.56;65.88;101398.25;5101195;27;20044;-71
2022/05/04 04:34:05;;;;;;;11.13;3.85;;;;;;;9.60;65.95;101405.09;5103450;27;20051;-71
2022/05/04 04:36:32;;;;;;;12.15;5.30;;;;;;;9.61;66.05;101405.91;5095966;28;20055;-71
2022/05/04 04:38:58;;;;;;;23.58;4.95;;;;;;;9.72;65.42;101407.22;5101608;27;20209;-71
2022/05/04 04:41:25;;;;;;;14.15;4.40;;;;;;;9.98;64.54;101421.09;5101866;28;20104;-71
2022/05/04 04:43:51;;;;;;;13.82;4.32;;;;;;;10.07;64.40;101410.28;5105548;28;20105;-71
2022/05/04 04:46:19;;;;;;;12.25;4.47;;;;;;;10.04;64.48;101406.00;5092610;28;20051;-71
2022/05/04 04:48:45;;;;;;;16.45;5.03;;;;;;;10.02;64.75;101406.97;5102539;28;20075;-71
2022/05/04 04:51:12;;;;;;;13.90;4.32;;;;;;;10.13;64.12;101405.63;5103073;27;20132;-71
2022/05/04 04:53:39;;;;;;;14.35;3.78;;;;;;;10.18;64.33;101416.84;5102065;27;20108;-71
2022/05/04 04:56:05;;;;;;;13.20;4.18;;;;;;;10.12;64.93;101410.97;5107810;27;20040;-71
2022/05/04 04:58:32;;;;;;;15.63;4.85;;;;;;;10.12;65.21;101424.91;5107807;28;20043;-71
2022/05/04 05:00:59;;;;;;;14.90;4.70;;;;;;;9.94;65.64;101420.34;5107377;28;20093;-71
2022/05/04 05:03:26;;;;;;;12.73;4.38;;;;;;;10.34;64.62;101411.00;5097868;28;20114;-71
2022/05/04 05:05:53;;;;;;;10.77;4.25;;;;;;;10.60;64.23;101405.56;5099170;28;20047;-71
2022/05/04 05:08:19;;;;;;;10.40;4.78;;;;;;;10.63;63.89;101403.66;5097161;27;20104;-71
2022/05/04 05:10:46;;;;;;;10.82;4.07;;;;;;;10.61;63.00;101392.34;5107717;28;20040;-71
2022/05/04 05:13:12;;;;;;;11.38;4.05;;;;;;;10.75;62.57;101392.63;5107002;27;20043;-71
2022/05/04 05:18:25;;;;;;;12.73;4.30;;;;;;;10.70;62.36;101393.75;5102790;28;20050;-70
2022/05/04 05:20:52;;;;;;;10.45;4.10;;;;;;;10.77;62.35;101395.19;5106159;28;20044;-70
2022/05/04 05:23:19;;;;;;;11.38;4.13;;;;;;;10.87;62.35;101398.28;5107907;28;20047;-70
2022/05/04 05:25:46;;;;;;;11.80;4.07;;;;;;;10.91;63.08;101398.09;5107890;28;20387;-71
2022/05/04 05:28:12;;;;;;;16.88;4.22;;;;;;;11.25;62.09;101392.22;5099208;28;20684;-71
2022/05/04 05:30:41;;;;;;;14.40;4.13;;;;;;;11.66;61.25;101393.00;5106698;27;20139;-71
2022/05/04 05:33:07;;;;;;;13.50;4.38;;;;;;;11.85;60.21;101388.66;5108619;28;20044;-71
2022/05/04 05:35:34;;;;;;;8.80;4.13;;;;;;;11.90;59.70;101391.91;5107403;28;20047;-71
2022/05/04 05:38:01;;;;;;;10.80;3.90;;;;;;;12.30;58.76;101390.03;5108095;27;20039;-71
2022/05/04 05:40:28;;;;;;;13.23;4.20;;;;;;;12.56;58.83;101382.53;5107183;27;20135;-71
2022/05/04 05:42:54;;;;;;;20.98;5.07;;;;;;;12.63;58.03;101386.59;5107721;27;20107;-71
2022/05/04 05:45:20;;;;;;;10.35;3.90;;;;;;;13.00;56.59;101395.25;5108605;27;20400;-71
2022/05/04 05:47:47;;;;;;;8.90;3.75;;;;;;;13.35;56.04;101396.91;5092551;28;20552;-71
2022/05/04 05:50:13;;;;;;;14.63;4.97;;;;;;;13.70;54.54;101396.84;5091878;28;20094;-71
2022/05/04 05:52:39;;;;;;;11.27;5.57;;;;;;;14.00;54.78;101398.66;5107091;28;20047;-71
2022/05/04 05:55:08;;;;;;;12.80;4.60;;;;;;;14.37;54.28;101394.84;5107301;27;20047;-71
2022/05/04 05:57:34;;;;;;;10.57;3.83;;;;;;;14.48;53.01;101402.13;5110784;27;20105;-71
2022/05/04 06:00:02;;;;;;;9.10;3.67;;;;;;;14.86;52.52;101398.09;5107981;28;20100;-71
2022/05/04 06:02:28;;;;;;;12.82;3.88;;;;;;;14.95;52.04;101394.91;5093026;28;20166;-71
2022/05/04 06:04:55;;;;;;;12.45;3.63;;;;;;;14.79;52.79;101401.19;5095007;27;20043;-71
2022/05/04 06:07:21;;;;;;;9.30;3.20;;;;;;;15.12;52.47;101401.81;5104098;27;20094;-70
2022/05/04 06:09:47;;;;;;;14.45;4.07;;;;;;;15.46;51.07;101403.28;5107362;27;20669;-70
2022/05/04 06:12:15;;;;;;;11.25;3.60;;;;;;;15.65;51.04;101409.16;5110664;27;20492;-70
2022/05/04 06:14:41;;;;;;;11.23;4.13;;;;;;;15.70;51.95;101403.59;5106985;27;20048;-70
2022/05/04 06:17:08;;;;;;;14.57;4.10;;;;;;;15.57;49.65;101395.56;5097177;28;20047;-71
2022/05/04 06:19:34;;;;;;;11.45;3.80;;;;;;;15.61;50.51;101404.16;5109960;28;20039;-70
2022/05/04 06:22:00;;;;;;;15.73;5.38;;;;;;;15.95;49.77;101390.53;5110775;27;20096;-70
2022/05/04 06:24:27;;;;;;;13.85;3.63;;;;;;;16.40;48.83;101399.94;5108851;27;20415;-70
2022/05/04 06:26:54;;;;;;;16.08;3.42;;;;;;;16.33;47.66;101391.53;5099740;28;20500;-70
2022/05/04 06:34:06;;;;;;;9.93;3.28;;;;;;;16.70;47.64;101397.09;5100341;28;20067;-70
2022/05/04 06:34:52;;;;;;;13.75;3.58;;;;;;;17.19;46.22;101395.47;5097686;28;20054;-70
2022/05/04 06:37:18;;;;;;;8.40;2.92;;;;;;;17.46;45.10;101401.50;5106930;27;20048;-70
2022/05/04 06:39:45;;;;;;;8.07;3.17;;;;;;;17.17;44.06;101402.69;5110971;27;20047;-70
2022/05/04 06:42:11;;;;;;;15.07;3.20;;;;;;;17.13;44.46;101403.84;5111539;28;20560;-70
2022/05/04 06:44:39;;;;;;;9.35;3.00;;;;;;;17.24;43.95;101406.59;5111778;27;20097;-70
2022/05/04 06:47:06;;;;;;;8.57;3.03;;;;;;;17.46;43.40;101416.56;5112042;27;20056;-71
2022/05/04 06:49:32;;;;;;;13.60;3.20;;;;;;;17.28;44.30;101401.94;5110592;27;20051;-70
2022/05/04 06:51:58;;;;;;;10.00;2.50;;;;;;;17.87;43.89;101403.91;5110462;27;20052;-70
2022/05/04 06:54:25;;;;;;;10.18;3.45;;;;;;;18.21;44.78;101405.00;5100245;28;20108;-70
2022/05/04 06:56:51;;;;;;;11.00;3.33;;;;;;;18.12;42.23;101407.44;5111318;27;20472;-70
2022/05/04 06:59:17;;;;;;;9.68;3.00;;;;;;;18.31;43.44;101411.31;5110033;27;20096;-70
2022/05/04 07:01:45;;;;;;;10.20;3.00;;;;;;;19.17;41.53;101400.44;5111745;27;20047;-70
2022/05/04 07:04:11;;;;;;;15.40;2.80;;;;;;;19.00;41.81;101403.50;5110808;27;20044;-71
2022/05/04 07:06:38;;;;;;;8.82;2.78;;;;;;;19.02;43.21;101405.13;5110728;27;20044;-70
2022/05/04 07:09:04;;;;;;;14.82;3.75;;;;;;;18.87;43.55;101403.63;5108831;27;20075;-70
2022/05/04 07:11:30;;;;;;;10.18;2.83;;;;;;;19.27;41.99;101412.03;5102306;27;20071;-70
2022/05/04 07:13:57;;;;;;;8.48;2.78;;;;;;;19.24;41.35;101406.97;5110718;27;20560;-71
2022/05/04 07:16:24;;;;;;;9.88;3.05;;;;;;;19.51;41.77;101404.00;5111003;27;20658;-71
2022/05/04 07:18:51;;;;;;;16.17;3.20;;;;;;;19.90;40.85;101408.81;5109961;27;20088;-71
2022/05/04 07:21:18;;;;;;;13.68;3.28;;;;;;;20.21;39.01;101400.03;5110617;27;20560;-71
2022/05/04 07:23:44;;;;;;;11.63;2.88;;;;;;;19.93;39.40;101406.75;5113874;27;20128;-71
2022/05/04 07:26:10;;;;;;;8.88;2.80;;;;;;;20.33;40.54;101401.75;5114933;27;20101;-71
2022/05/04 07:28:38;;;;;;;7.68;3.30;;;;;;;20.07;39.92;101407.44;5110469;28;20057;-71
2022/05/04 07:31:04;;;;;;;7.57;2.70;;;;;;;19.90;39.82;101401.69;5110042;27;20039;-71
2022/05/04 07:33:31;;;;;;;11.38;3.20;;;;;;;19.70;39.58;101406.88;5110129;27;20521;-71
2022/05/04 07:35:58;;;;;;;9.85;3.03;;;;;;;19.97;39.66;101407.34;5110330;27;20047;-71
2022/05/04 07:38:25;;;;;;;11.60;3.20;;;;;;;20.47;41.07;101403.28;5109989;27;20085;-71
2022/05/04 07:43:35;;;;;;;10.80;2.92;;;;;;;20.12;39.05;101392.81;5109402;27;20507;-71
2022/05/04 07:46:01;;;;;;;9.57;3.15;;;;;;;20.57;40.68;101404.22;5109952;27;20043;-71
2022/05/04 07:48:27;;;;;;;10.23;3.00;;;;;;;20.69;40.21;101399.69;5110259;27;20499;-71
2022/05/04 07:50:54;;;;;;;7.43;2.72;;;;;;;20.64;40.59;101396.53;5109309;27;20047;-71
2022/05/04 07:53:21;;;;;;;14.05;3.17;;;;;;;20.93;40.12;101396.75;5110068;28;20047;-71
2022/05/04 07:55:48;;;;;;;11.13;3.20;;;;;;;21.24;39.18;101404.72;5110038;27;20496;-71
2022/05/04 07:58:14;;;;;;;6.28;3.15;;;;;;;21.16;39.08;101403.69;5110786;27;20105;-71
2022/05/04 08:06:08;;;;;;;7.78;2.80;;;;;;;22.34;36.91;101398.53;5091971;28;20107;-71
2022/05/04 08:08:36;;;;;;;10.05;2.80;;;;;;;22.08;37.48;101402.69;5107812;27;20090;-71
2022/05/04 08:11:03;;;;;;;11.63;2.97;;;;;;;21.57;36.36;101394.78;5109679;27;20097;-71
2022/05/04 08:13:30;;;;;;;7.75;2.83;;;;;;;21.94;38.19;101389.75;5111237;27;20043;-71
2022/05/04 08:15:56;;;;;;;11.65;2.90;;;;;;;21.98;35.88;101385.81;5115210;27;20043;-71
2022/05/04 08:18:25;;;;;;;14.27;3.10;;;;;;;22.31;37.69;101393.47;5130147;27;20043;-71
2022/05/04 08:20:51;;;;;;;11.55;3.65;;;;;;;22.86;37.24;101397.31;5130358;27;20498;-71
2022/05/04 08:23:17;;;;;;;11.32;3.05;;;;;;;23.08;36.07;101396.97;5130952;27;20100;-71
2022/05/04 08:25:46;;;;;;;9.35;2.70;;;;;;;23.13;36.35;101397.38;5111598;27;20051;-71
2022/05/04 08:28:13;;;;;;;15.60;3.03;;;;;;;22.62;37.24;101394.16;5110956;28;20048;-71
2022/05/04 08:30:39;;;;;;;15.75;2.90;;;;;;;22.66;36.42;101398.25;5120634;27;20045;-71
2022/05/04 08:33:06;;;;;;;13.65;3.03;;;;;;;23.32;35.62;101401.03;5131167;27;21181;-71
2022/05/04 08:35:32;;;;;;;9.18;2.90;;;;;;;23.63;36.77;101400.66;5131403;27;20051;-71
2022/05/04 08:37:59;;;;;;;13.48;2.75;;;;;;;23.70;34.49;101388.34;5109123;27;20379;-71
2022/05/04 08:40:25;;;;;;;9.32;2.70;;;;;;;23.26;33.39;101394.41;5109939;27;20056;-71
2022/05/04 08:42:55;;;;;;;12.90;3.08;;;;;;;22.85;38.70;101392.94;5110530;27;20043;-71
2022/05/04 08:45:22;;;;;;;11.35;2.55;;;;;;;23.63;35.99;101389.94;5110763;27;20047;-71
2022/05/04 08:47:50;;;;;;;10.98;3.08;;;;;;;23.92;34.86;101392.47;5110331;28;20043;-71
2022/05/04 08:50:17;;;;;;;7.22;2.83;;;;;;;23.69;32.40;101389.34;5112058;27;20085;-71
2022/05/04 08:52:52;;;;;;;13.30;3.38;;;;;;;23.64;37.33;101394.31;5130925;27;20157;-71
2022/05/04 08:55:18;;;;;;;11.32;3.05;;;;;;;23.00;37.82;101396.00;5130606;27;20040;-71
2022/05/04 08:57:45;;;;;;;7.47;2.83;;;;;;;23.02;34.63;101389.50;5121286;27;20111;-71
2022/05/04 09:00:14;;;;;;;10.82;2.83;;;;;;;22.63;37.05;101390.53;5109239;28;20039;-71
2022/05/04 09:02:40;;;;;;;8.20;2.88;;;;;;;22.90;35.61;101384.50;5109388;28;20035;-71
2022/05/04 09:05:17;;;;;;;20.42;3.28;;;;;;;23.58;36.92;101386.84;5108980;28;20552;-71
2022/05/04 09:07:43;;;;;;;7.25;2.33;;;;;;;24.11;36.10;101376.28;5105600;27;20739;-71
2022/05/04 09:10:16;;;;;;;9.98;2.78;;;;;;;24.48;37.10;101370.81;5108721;27;20054;-71
2022/05/04 09:12:43;;;;;;;12.07;3.20;;;;;;;24.65;34.59;101371.78;5107062;27;20047;-71
2022/05/04 09:15:17;;;;;;;7.50;2.65;;;;;;;24.39;32.34;101370.91;5109369;27;20419;-71
2022/05/04 09:17:44;;;;;;;10.05;3.15;;;;;;;24.22;32.18;101365.38;5107569;27;20039;-71
2022/05/04 09:22:55;;;;;;;8.25;2.60;;;;;;;23.25;34.69;101372.16;5108166;28;20616;-72
2022/05/04 09:25:25;;;;;;;10.10;2.95;;;;;;;22.67;33.02;101371.44;5118997;27;20043;-71
2022/05/04 09:27:52;;;;;;;13.27;3.33;;;;;;;23.00;36.94;101379.97;5129899;27;20128;-71
2022/05/04 09:30:24;;;;;;;8.70;3.15;;;;;;;23.03;35.21;101371.63;5114038;27;20048;-71
2022/05/04 09:32:51;;;;;;;13.05;3.25;;;;;;;23.29;35.25;101368.19;5110049;28;20041;-71
2022/05/04 09:35:18;;;;;;;9.43;3.13;;;;;;;22.95;34.63;101372.34;5111402;28;20044;-71
2022/05/04 09:46:05;;;;;;;10.75;3.80;;;;;;;22.05;38.89;101365.59;5113640;28;20048;-71
2022/05/04 09:48:33;;;;;;;11.27;3.22;;;;;;;22.58;36.51;101355.38;5112377;28;20072;-71
2022/05/04 09:51:05;;;;;;;8.27;3.20;;;;;;;21.67;38.29;101360.97;5111276;28;20044;-71
2022/05/04 09:53:32;;;;;;;7.95;2.95;;;;;;;21.70;36.74;101350.84;5112186;28;20046;-71
2022/05/04 09:56:01;;;;;;;11.05;3.92;;;;;;;21.50;37.17;101348.25;5112047;28;20104;-71
2022/05/04 09:58:28;;;;;;;9.52;3.83;;;;;;;22.24;38.02;101350.44;5130946;27;20130;-71
2022/05/04 10:00:55;;;;;;;11.43;3.28;;;;;;;22.19;34.53;101336.66;5114237;27;20044;-72
2022/05/04 10:03:23;;;;;;;6.90;2.92;;;;;;;22.58;38.58;101347.34;5111243;28;20059;-72
2022/05/04 10:05:50;;;;;;;9.18;3.33;;;;;;;22.26;35.22;101339.59;5110998;28;20496;-71
2022/05/04 10:08:16;;;;;;;12.98;2.85;;;;;;;22.24;37.95;101347.78;5107028;27;20384;-71
2022/05/04 10:10:44;;;;;;;9.30;3.00;;;;;;;22.43;37.54;101343.41;5110867;28;20043;-71
2022/05/04 10:13:10;;;;;;;12.23;3.22;;;;;;;22.01;35.77;101348.16;5110363;27;20048;-71
2022/05/04 10:15:40;;;;;;;8.32;3.10;;;;;;;20.70;38.33;101345.38;5111525;27;20207;-71
2022/05/04 10:18:11;;;;;;;8.88;3.58;;;;;;;21.16;38.02;101345.88;5110776;28;20043;-71
2022/05/04 10:20:44;;;;;;;13.40;3.30;;;;;;;20.73;41.79;101339.81;5109953;28;20031;-71
2022/05/04 10:23:14;;;;;;;10.45;3.03;;;;;;;20.27;40.26;101340.97;5110504;28;20044;-71
2022/05/04 10:25:42;;;;;;;7.35;3.33;;;;;;;20.47;40.40;101338.50;5120103;27;20039;-71
2022/05/04 10:28:11;;;;;;;9.50;3.80;;;;;;;21.12;41.01;101333.78;5116476;27;20051;-71
2022/05/04 10:30:45;;;;;;;12.18;3.78;;;;;;;21.27;40.78;101337.78;5113039;27;20455;-71
2022/05/04 10:33:11;;;;;;;9.40;2.92;;;;;;;21.28;37.84;101325.28;5113978;28;20048;-71
2022/05/04 10:35:44;;;;;;;10.73;3.28;;;;;;;20.86;37.49;101319.97;5114038;27;20047;-71
2022/05/04 10:38:12;;;;;;;6.93;3.25;;;;;;;21.59;39.79;101316.25;5114720;27;20105;-71
2022/05/04 10:40:43;;;;;;;7.25;3.40;;;;;;;21.65;41.52;101318.41;5112587;27;20145;-71
2022/05/04 10:43:12;;;;;;;7.75;2.80;;;;;;;21.89;39.63;101315.34;5112369;27;20035;-71
2022/05/04 10:45:40;;;;;;;9.65;3.67;;;;;;;22.17;36.81;101301.19;5113280;27;20103;-71
2022/05/04 10:48:28;;;;;;;7.32;2.95;;;;;;;21.57;40.18;101314.72;5112297;27;20100;-71
2022/05/04 10:50:58;;;;;;;7.60;3.33;;;;;;;21.37;38.84;101308.47;5102561;27;20044;-71
2022/05/04 10:53:42;;;;;;;9.07;3.20;;;;;;;21.57;39.06;101302.22;5100410;27;20055;-71
2022/05/04 10:56:10;;;;;;;9.57;3.17;;;;;;;22.37;41.43;101295.88;5112250;27;20044;-71
2022/05/04 10:58:39;;;;;;;6.43;3.10;;;;;;;23.13;37.88;101295.72;5111296;27;20457;-71
2022/05/04 11:01:10;;;;;;;13.93;3.53;;;;;;;23.29;37.06;101303.97;5108510;28;20047;-72
2022/05/04 11:03:38;;;;;;;8.90;3.43;;;;;;;22.17;35.76;101289.69;5111456;27;20054;-72
2022/05/04 11:06:09;;;;;;;9.10;3.25;;;;;;;22.87;37.42;101283.16;5111463;27;20116;-72
2022/05/04 11:08:36;;;;;;;20.00;3.08;;;;;;;23.53;39.46;101275.88;5110801;27;20438;-72
2022/05/04 11:11:04;;;;;;;9.27;2.85;;;;;;;24.18;36.84;101272.88;5110591;27;20112;-72
2022/05/04 11:13:31;;;;;;;7.90;3.00;;;;;;;24.50;35.12;101279.53;5110506;27;20129;-72
2022/05/04 11:16:00;;;;;;;5.53;2.60;;;;;;;24.20;35.13;101270.88;5111221;27;20050;-72
2022/05/04 11:18:27;;;;;;;7.20;3.58;;;;;;;24.07;35.48;101274.91;5109685;27;20134;-72
2022/05/04 11:20:53;;;;;;;6.05;2.88;;;;;;;24.49;35.17;101273.31;5110446;28;20571;-72
2022/05/04 11:23:25;;;;;;;8.85;3.58;;;;;;;23.27;33.95;101275.69;5111091;28;20128;-72
2022/05/04 11:25:52;;;;;;;7.47;3.15;;;;;;;24.13;32.11;101267.13;5110750;28;20135;-72
2022/05/04 11:28:19;;;;;;;8.38;3.15;;;;;;;24.22;30.96;101262.69;5111022;28;20504;-72
2022/05/04 11:30:46;;;;;;;9.32;3.13;;;;;;;23.69;35.42;101258.13;5110795;28;20050;-72
2022/05/04 11:33:14;;;;;;;7.05;2.90;;;;;;;23.24;32.87;101273.31;5110434;27;20552;-72
2022/05/04 11:35:42;;;;;;;7.50;2.67;;;;;;;23.61;34.07;101262.56;5108388;28;20044;-72
2022/05/04 11:38:16;;;;;;;10.68;2.88;;;;;;;24.08;34.43;101256.03;5106323;27;20495;-72
2022/05/04 11:40:46;;;;;;;7.30;2.85;;;;;;;24.45;33.32;101263.91;5126037;27;20039;-72
2022/05/04 11:43:22;;;;;;;5.03;3.13;;;;;;;24.80;34.86;101252.22;5114674;27;20044;-72
2022/05/04 11:45:49;;;;;;;5.50;3.00;;;;;;;25.39;34.29;101250.50;5110559;28;20093;-69
2022/05/04 11:48:16;;;;;;;8.27;2.60;;;;;;;26.31;34.55;101239.66;5111059;28;20124;-73
2022/05/04 11:50:43;;;;;;;4.38;2.55;;;;;;;25.13;34.83;101251.41;5091048;28;20063;-69
2022/05/04 11:53:09;;;;;;;6.05;2.90;;;;;;;25.09;32.54;101250.06;5089953;28;20040;-73
2022/05/04 11:55:36;;;;;;;9.63;3.58;;;;;;;25.28;31.37;101242.75;5112906;27;20047;-73